createdAt,value
2023-03-17T00:01:55.928Z,5.35
2023-03-17T00:04:24.473Z,5.34
2023-03-17T00:06:52.912Z,5.36
2023-03-17T00:09:22.308Z,5.31
2023-03-17T00:11:50.158Z,5.25
2023-03-17T00:14:18.038Z,5.32
2023-03-17T00:16:49.529Z,5.19
2023-03-17T00:19:20.044Z,5.26
2023-03-17T00:21:47.991Z,5.17
2023-03-17T00:24:15.790Z,5.17
2023-03-17T00:26:43.430Z,5.08
2023-03-17T00:29:10.613Z,5.12
2023-03-17T00:31:39.140Z,5.13
2023-03-17T00:34:07.835Z,5.14
2023-03-17T00:36:35.774Z,5.14
2023-03-17T00:39:03.678Z,5.18
2023-03-17T00:41:31.133Z,5.22
2023-03-17T00:43:58.558Z,5.20
2023-03-17T00:46:28.845Z,5.13
2023-03-17T00:48:56.268Z,5.24
2023-03-17T00:51:23.522Z,5.22
2023-03-17T00:53:50.903Z,5.31
2023-03-17T00:56:20.851Z,5.34
2023-03-17T00:58:48.713Z,5.35
2023-03-17T01:01:16.311Z,5.26
2023-03-17T01:03:43.463Z,5.23
2023-03-17T01:06:13.109Z,5.13
2023-03-17T01:08:41.789Z,5.28
2023-03-17T01:11:18.815Z,5.20
2023-03-17T01:13:46.983Z,5.21
2023-03-17T01:16:15.525Z,5.22
2023-03-17T01:18:43.855Z,5.20
2023-03-17T01:21:11.390Z,5.12
2023-03-17T01:23:38.839Z,5.15
2023-03-17T01:26:06.634Z,5.17
2023-03-17T01:28:34.164Z,5.15
2023-03-17T01:31:02.847Z,5.17
2023-03-17T01:33:29.976Z,5.22
2023-03-17T01:35:57.523Z,5.30
2023-03-17T01:38:24.656Z,5.24
2023-03-17T01:40:52.279Z,5.22
2023-03-17T01:43:27.634Z,5.26
2023-03-17T01:46:27.699Z,5.21
2023-03-17T01:49:14.656Z,5.18
2023-03-17T01:52:01.014Z,5.16
2023-03-17T01:54:55.641Z,5.13
2023-03-17T01:57:29.817Z,5.18
2023-03-17T02:00:19.642Z,5.28
2023-03-17T02:02:50.151Z,5.16
2023-03-17T02:05:21.422Z,5.12
2023-03-17T02:07:49.271Z,5.11
2023-03-17T02:10:18.472Z,5.15
2023-03-17T02:12:48.157Z,5.07
2023-03-17T02:15:15.577Z,5.10
2023-03-17T02:17:43.018Z,5.02
2023-03-17T02:20:16.282Z,5.02
2023-03-17T02:22:45.393Z,5.03
2023-03-17T02:25:14.008Z,4.98
2023-03-17T02:27:51.479Z,4.95
2023-03-17T02:30:21.108Z,4.90
2023-03-17T02:32:48.496Z,4.90
2023-03-17T02:35:15.753Z,4.91
2023-03-17T02:37:43.699Z,4.88
2023-03-17T02:40:11.415Z,4.79
2023-03-17T02:42:39.385Z,4.76
2023-03-17T02:45:07.883Z,4.79
2023-03-17T02:47:35.763Z,4.75
2023-03-17T02:50:04.778Z,4.77
2023-03-17T02:52:32.111Z,4.81
2023-03-17T02:54:59.173Z,4.76
2023-03-17T02:57:26.677Z,4.75
2023-03-17T02:59:53.785Z,4.81
2023-03-17T03:02:20.864Z,4.81
2023-03-17T03:04:47.967Z,4.80
2023-03-17T03:07:15.029Z,4.78
2023-03-17T03:09:42.202Z,4.74
2023-03-17T03:12:10.125Z,4.74
2023-03-17T03:14:37.561Z,4.78
2023-03-17T03:17:04.798Z,4.80
2023-03-17T03:19:31.864Z,4.79
2023-03-17T03:21:59.264Z,4.83
2023-03-17T03:24:26.321Z,4.89
2023-03-17T03:26:53.722Z,4.83
2023-03-17T03:29:21.098Z,4.86
2023-03-17T03:31:48.747Z,4.88
2023-03-17T03:34:16.512Z,4.90
2023-03-17T03:36:43.729Z,4.89
2023-03-17T03:39:12.477Z,4.88
2023-03-17T03:41:41.426Z,4.93
2023-03-17T03:44:09.022Z,4.88
2023-03-17T03:46:36.355Z,4.90
2023-03-17T03:49:03.418Z,4.91
2023-03-17T03:51:31.002Z,4.90
2023-03-17T03:53:58.392Z,4.91
2023-03-17T03:56:25.471Z,4.92
2023-03-17T03:58:52.686Z,4.82
2023-03-17T04:01:20.217Z,4.84
2023-03-17T04:03:47.487Z,4.91
2023-03-17T04:06:14.626Z,4.92
2023-03-17T04:08:41.909Z,4.93
2023-03-17T04:11:08.958Z,4.83
2023-03-17T04:13:36.043Z,4.77
2023-03-17T04:16:03.598Z,4.81
2023-03-17T04:18:31.983Z,4.78
2023-03-17T04:20:59.459Z,4.79
2023-03-17T04:23:26.797Z,4.77
2023-03-17T04:25:54.276Z,4.79
2023-03-17T04:28:22.475Z,4.78
2023-03-17T04:30:49.508Z,4.75
2023-03-17T04:33:16.783Z,4.77
2023-03-17T04:35:43.941Z,4.77
2023-03-17T04:38:13.155Z,4.68
2023-03-17T04:40:40.745Z,4.72
2023-03-17T04:43:08.184Z,4.66
2023-03-17T04:45:35.208Z,4.65
2023-03-17T04:48:02.231Z,4.60
2023-03-17T04:50:29.595Z,4.59
2023-03-17T04:52:56.812Z,4.50
2023-03-17T04:55:23.949Z,4.58
2023-03-17T04:57:51.163Z,4.56
2023-03-17T05:00:18.553Z,4.33
2023-03-17T05:02:45.556Z,4.42
2023-03-17T05:05:12.913Z,4.31
2023-03-17T05:07:40.293Z,4.27
2023-03-17T05:10:08.238Z,4.34
2023-03-17T05:12:35.312Z,4.24
2023-03-17T05:15:02.540Z,4.20
2023-03-17T05:17:29.562Z,4.18
2023-03-17T05:19:56.603Z,4.10
2023-03-17T05:22:23.954Z,4.14
2023-03-17T05:24:51.067Z,4.08
2023-03-17T05:27:18.165Z,4.01
2023-03-17T05:29:45.594Z,4.06
2023-03-17T05:32:13.485Z,4.05
2023-03-17T05:34:40.562Z,4.04
2023-03-17T05:37:07.618Z,4.01
2023-03-17T05:39:34.712Z,4.02
2023-03-17T05:42:01.794Z,3.99
2023-03-17T05:44:29.141Z,4.03
2023-03-17T05:46:56.237Z,3.96
2023-03-17T05:49:24.605Z,3.98
2023-03-17T05:51:51.653Z,4.01
2023-03-17T05:54:18.816Z,3.94
2023-03-17T05:56:46.438Z,4.05
2023-03-17T05:59:15.777Z,4.07
2023-03-17T06:01:42.780Z,4.12
2023-03-17T06:04:10.547Z,4.10
2023-03-17T06:06:37.562Z,4.22
2023-03-17T06:09:04.714Z,4.25
2023-03-17T06:11:31.848Z,4.25
2023-03-17T06:13:59.222Z,4.26
2023-03-17T06:16:28.866Z,4.22
2023-03-17T06:18:55.948Z,4.25
2023-03-17T06:21:23.065Z,4.23
2023-03-17T06:23:50.270Z,4.31
2023-03-17T06:26:17.325Z,4.40
2023-03-17T06:28:44.334Z,4.45
2023-03-17T06:31:12.292Z,4.44
2023-03-17T06:33:39.600Z,4.48
2023-03-17T06:36:08.540Z,4.53
2023-03-17T06:38:35.646Z,4.56
2023-03-17T06:41:03.461Z,4.64
2023-03-17T06:43:31.430Z,4.56
2023-03-17T06:45:58.657Z,4.44
2023-03-17T06:48:25.817Z,4.60
2023-03-17T06:50:52.820Z,4.60
2023-03-17T06:53:20.129Z,4.64
2023-03-17T06:55:48.596Z,4.74
2023-03-17T06:58:15.963Z,4.83
2023-03-17T07:00:45.488Z,4.83
2023-03-17T07:03:12.985Z,4.94
2023-03-17T07:05:40.246Z,5.09
2023-03-17T07:08:08.243Z,5.14
2023-03-17T07:10:37.028Z,5.19
2023-03-17T07:13:06.049Z,5.21
2023-03-17T07:15:35.316Z,5.28
2023-03-17T07:18:02.615Z,5.20
2023-03-17T07:20:29.922Z,5.20
2023-03-17T07:22:58.253Z,5.20
2023-03-17T07:25:25.265Z,5.29
2023-03-17T07:27:52.361Z,5.38
2023-03-17T07:30:20.168Z,5.50
2023-03-17T07:32:48.023Z,5.56
2023-03-17T07:35:16.320Z,5.67
2023-03-17T07:37:47.469Z,5.80
2023-03-17T07:40:15.308Z,5.77
2023-03-17T07:42:42.538Z,5.85
2023-03-17T07:45:10.086Z,5.95
2023-03-17T07:47:37.420Z,5.99
2023-03-17T07:50:05.002Z,6.12
2023-03-17T07:52:32.422Z,6.30
2023-03-17T07:54:59.406Z,6.35
2023-03-17T07:57:27.208Z,6.50
2023-03-17T07:59:54.674Z,6.60
2023-03-17T08:02:22.216Z,6.80
2023-03-17T08:04:50.129Z,6.92
2023-03-17T08:07:17.271Z,7.02
2023-03-17T08:09:44.326Z,7.01
2023-03-17T08:12:11.763Z,7.10
2023-03-17T08:14:38.910Z,7.14
2023-03-17T08:17:06.458Z,7.33
2023-03-17T08:19:33.698Z,7.42
2023-03-17T08:22:01.624Z,7.58
2023-03-17T08:24:29.409Z,7.76
2023-03-17T08:26:57.153Z,7.87
2023-03-17T08:29:25.695Z,8.01
2023-03-17T08:31:52.910Z,8.06
2023-03-17T08:34:20.234Z,8.17
2023-03-17T08:36:47.357Z,8.24
2023-03-17T08:39:14.472Z,8.25
2023-03-17T08:41:41.777Z,8.34
2023-03-17T08:44:09.391Z,8.49
2023-03-17T08:46:36.971Z,8.66
2023-03-17T08:49:04.374Z,8.77
2023-03-17T08:51:34.836Z,8.90
2023-03-17T08:54:01.981Z,9.05
2023-03-17T08:56:31.219Z,9.17
2023-03-17T08:59:00.832Z,9.29
2023-03-17T09:01:28.934Z,9.42
2023-03-17T09:03:56.522Z,9.55
2023-03-17T09:06:24.584Z,9.47
2023-03-17T09:08:55.485Z,9.52
2023-03-17T09:11:28.859Z,9.66
2023-03-17T09:13:56.768Z,9.73
2023-03-17T09:16:25.341Z,9.81
2023-03-17T09:18:53.478Z,9.94
2023-03-17T09:21:21.188Z,10.12
2023-03-17T09:23:48.371Z,10.30
2023-03-17T09:26:15.650Z,10.45
2023-03-17T09:28:42.856Z,10.51
2023-03-17T09:31:12.319Z,10.69
2023-03-17T09:33:40.981Z,10.80
2023-03-17T09:36:09.836Z,10.88
2023-03-17T09:38:37.499Z,11.03
2023-03-17T09:41:16.794Z,11.00
2023-03-17T09:44:05.556Z,11.15
2023-03-17T09:47:00.032Z,11.23
2023-03-17T09:49:44.725Z,11.36
2023-03-17T09:52:18.792Z,11.54
2023-03-17T09:54:49.634Z,11.47
2023-03-17T09:57:21.197Z,11.58
2023-03-17T09:59:50.574Z,11.63
2023-03-17T10:02:38.175Z,11.56
2023-03-17T10:05:18.467Z,11.69
2023-03-17T10:07:56.780Z,11.81
2023-03-17T10:10:23.827Z,11.81
2023-03-17T10:13:12.873Z,11.94
2023-03-17T10:16:01.937Z,12.10
2023-03-17T10:18:43.154Z,12.31
2023-03-17T10:21:13.654Z,12.46
2023-03-17T10:23:41.424Z,12.40
2023-03-17T10:26:31.663Z,12.62
2023-03-17T10:28:59.950Z,12.91
2023-03-17T10:31:30.841Z,13.04
2023-03-17T10:34:03.997Z,13.20
2023-03-17T10:36:44.386Z,13.23
2023-03-17T10:39:14.774Z,13.35
2023-03-17T10:42:05.855Z,13.52
2023-03-17T10:44:50.755Z,13.89
2023-03-17T10:47:21.678Z,14.15
2023-03-17T10:49:49.392Z,14.38
2023-03-17T10:52:23.255Z,14.81
2023-03-17T10:54:53.251Z,15.04
2023-03-17T10:57:21.400Z,15.49
2023-03-17T10:59:58.315Z,15.86
2023-03-17T11:02:30.574Z,15.85
2023-03-17T11:05:05.483Z,16.09
2023-03-17T11:07:39.110Z,16.26
2023-03-17T11:10:21.922Z,16.20
2023-03-17T11:12:55.442Z,16.16
2023-03-17T11:15:23.054Z,16.22
2023-03-17T11:18:24.087Z,16.41
2023-03-17T11:21:02.289Z,16.44
2023-03-17T11:23:46.456Z,16.45
2023-03-17T11:26:32.367Z,16.75
2023-03-17T11:29:28.829Z,16.92
2023-03-17T11:32:01.700Z,17.05
2023-03-17T11:34:48.246Z,16.91
2023-03-17T11:37:39.738Z,17.01
2023-03-17T11:40:17.369Z,17.06
2023-03-17T11:43:13.870Z,17.27
2023-03-17T11:45:56.449Z,17.53
2023-03-17T11:48:43.958Z,17.36
2023-03-17T11:51:30.515Z,17.53
2023-03-17T11:54:09.806Z,17.59
2023-03-17T11:56:45.465Z,17.48
2023-03-17T11:59:47.585Z,17.68
2023-03-17T12:02:42.603Z,17.79
2023-03-17T12:05:15.913Z,17.77
2023-03-17T12:08:12.448Z,17.43
2023-03-17T12:10:57.244Z,17.42
2023-03-17T12:13:40.291Z,17.52
2023-03-17T12:16:39.659Z,18.00
2023-03-17T12:19:21.038Z,-138.62
2023-03-17T12:21:53.133Z,18.00
2023-03-17T12:24:39.165Z,18.00
2023-03-17T12:27:15.208Z,-138.62
2023-03-17T12:30:02.925Z,-138.62
2023-03-17T12:32:39.507Z,-138.62
2023-03-17T12:35:18.696Z,-138.62
2023-03-17T12:37:46.791Z,18.00
2023-03-17T12:40:20.654Z,19.56
2023-03-17T12:42:54.035Z,19.89
2023-03-17T12:45:56.825Z,20.23
2023-03-17T12:49:13.506Z,20.15
2023-03-17T12:52:00.870Z,20.45
2023-03-17T12:54:31.525Z,20.63
2023-03-17T12:57:17.352Z,20.57
2023-03-17T12:59:46.740Z,20.29
2023-03-17T13:02:32.844Z,20.68
2023-03-17T13:05:01.784Z,20.27
2023-03-17T13:07:46.947Z,20.18
2023-03-17T13:10:44.573Z,20.45
2023-03-17T13:13:36.281Z,20.56
2023-03-17T13:16:05.655Z,20.34
2023-03-17T13:18:35.482Z,20.16
2023-03-17T13:21:02.561Z,19.63
2023-03-17T13:23:55.203Z,19.72
2023-03-17T13:26:55.485Z,19.29
2023-03-17T13:29:32.221Z,19.70
2023-03-17T13:32:17.267Z,20.12
2023-03-17T13:34:49.613Z,20.12
2023-03-17T13:37:31.427Z,20.40
2023-03-17T13:40:24.531Z,20.68
2023-03-17T13:43:00.819Z,20.46
2023-03-17T13:45:37.354Z,20.61
2023-03-17T13:48:29.499Z,20.91
2023-03-17T13:51:09.781Z,21.08
2023-03-17T13:53:45.155Z,21.76
2023-03-17T13:56:45.648Z,22.13
2023-03-17T13:59:15.602Z,22.62
2023-03-17T14:01:52.667Z,22.11
2023-03-17T14:04:28.825Z,22.34
2023-03-17T14:07:04.917Z,21.93
2023-03-17T14:09:41.414Z,21.96
2023-03-17T14:12:28.489Z,21.85
2023-03-17T14:15:07.648Z,21.41
2023-03-17T14:17:42.848Z,21.67
2023-03-17T14:20:16.124Z,21.55
2023-03-17T14:22:46.363Z,21.41
2023-03-17T14:25:21.937Z,21.44
2023-03-17T14:27:55.325Z,21.35
2023-03-17T14:30:28.760Z,21.46
2023-03-17T14:33:12.494Z,21.47
2023-03-17T14:35:43.352Z,21.22
2023-03-17T14:38:41.994Z,21.11
2023-03-17T14:41:14.957Z,20.96
2023-03-17T14:43:43.922Z,20.91
2023-03-17T14:46:28.070Z,20.23
2023-03-17T14:49:01.365Z,19.69
2023-03-17T14:51:35.310Z,19.28
2023-03-17T14:54:06.143Z,18.84
2023-03-17T14:56:38.609Z,18.91
2023-03-17T14:59:22.428Z,18.54
2023-03-17T15:01:54.840Z,18.48
2023-03-17T15:04:34.719Z,18.19
2023-03-17T15:07:04.583Z,18.10
2023-03-17T15:09:36.635Z,18.44
2023-03-17T15:12:05.979Z,18.93
2023-03-17T15:14:34.710Z,18.88
2023-03-17T15:17:04.428Z,18.68
2023-03-17T15:19:40.703Z,18.58
2023-03-17T15:22:25.788Z,18.57
2023-03-17T15:25:29.236Z,18.29
2023-03-17T15:27:56.312Z,18.01
2023-03-17T15:30:24.782Z,17.88
2023-03-17T15:33:00.913Z,17.79
2023-03-17T15:35:31.573Z,17.70
2023-03-17T15:37:58.763Z,17.67
2023-03-17T15:40:26.164Z,17.53
2023-03-17T15:42:53.228Z,17.48
2023-03-17T15:45:20.609Z,17.49
2023-03-17T15:47:47.786Z,17.15
2023-03-17T15:50:16.798Z,17.18
2023-03-17T15:52:45.840Z,17.05
2023-03-17T15:55:21.406Z,16.87
2023-03-17T15:57:54.819Z,16.82
2023-03-17T16:00:24.579Z,16.77
2023-03-17T16:02:56.185Z,16.62
2023-03-17T16:05:26.437Z,16.51
2023-03-17T16:07:55.474Z,16.43
2023-03-17T16:10:27.908Z,16.35
2023-03-17T16:12:55.757Z,16.37
2023-03-17T16:15:26.047Z,16.28
2023-03-17T16:18:00.492Z,16.01
2023-03-17T16:20:27.549Z,16.09
2023-03-17T16:22:58.923Z,15.97
2023-03-17T16:25:31.463Z,15.89
2023-03-17T16:28:01.111Z,15.94
2023-03-17T16:30:31.683Z,15.88
2023-03-17T16:33:08.732Z,15.69
2023-03-17T16:35:35.908Z,15.58
2023-03-17T16:38:03.229Z,15.44
2023-03-17T16:40:38.777Z,15.39
2023-03-17T16:43:24.194Z,15.14
2023-03-17T16:46:02.319Z,14.95
2023-03-17T16:48:29.596Z,14.97
2023-03-17T16:50:57.540Z,14.93
2023-03-17T16:53:28.155Z,14.77
2023-03-17T16:55:56.178Z,14.84
2023-03-17T16:58:36.881Z,14.73
2023-03-17T17:01:11.447Z,14.60
2023-03-17T17:03:38.926Z,14.48
2023-03-17T17:06:07.170Z,14.43
2023-03-17T17:08:34.392Z,14.43
2023-03-17T17:11:01.508Z,14.35
2023-03-17T17:13:28.646Z,14.38
2023-03-17T17:15:56.200Z,14.25
2023-03-17T17:18:24.686Z,14.19
2023-03-17T17:20:53.533Z,14.11
2023-03-17T17:23:23.239Z,14.04
2023-03-17T17:25:50.906Z,13.90
2023-03-17T17:28:21.407Z,13.86
2023-03-17T17:30:50.620Z,13.80
2023-03-17T17:33:20.251Z,13.61
2023-03-17T17:35:49.060Z,13.47
2023-03-17T17:38:26.705Z,13.46
2023-03-17T17:40:55.853Z,13.48
2023-03-17T17:43:24.458Z,13.45
2023-03-17T17:45:52.523Z,13.41
2023-03-17T17:48:23.074Z,13.40
2023-03-17T17:54:31.732Z,13.23
2023-03-17T17:56:58.947Z,13.19
2023-03-17T17:59:27.335Z,13.09
2023-03-17T18:01:54.722Z,13.12
2023-03-17T18:04:22.025Z,13.12
2023-03-17T18:06:49.123Z,13.10
2023-03-17T18:09:18.099Z,13.05
2023-03-17T18:11:45.219Z,13.06
2023-03-17T18:14:13.762Z,13.05
2023-03-17T18:16:41.357Z,12.99
2023-03-17T18:19:11.371Z,12.94
2023-03-17T18:21:38.810Z,12.88
2023-03-17T18:24:06.598Z,12.89
2023-03-17T18:26:34.299Z,12.77
2023-03-17T18:29:01.964Z,12.81
2023-03-17T18:31:34.885Z,12.76
2023-03-17T18:34:11.639Z,12.74
2023-03-17T18:36:40.037Z,12.67
2023-03-17T18:39:07.235Z,12.63
2023-03-17T18:41:35.092Z,12.61
2023-03-17T18:44:02.646Z,12.54
2023-03-17T18:46:29.723Z,12.55
2023-03-17T18:48:56.865Z,12.50
2023-03-17T18:51:23.904Z,12.55
2023-03-17T18:53:51.040Z,12.53
2023-03-17T18:56:18.192Z,12.49
2023-03-17T18:58:45.594Z,12.56
2023-03-17T19:01:12.744Z,12.53
2023-03-17T19:03:40.114Z,12.51
2023-03-17T19:06:15.855Z,12.54
2023-03-17T19:08:44.297Z,12.57
2023-03-17T19:11:14.047Z,12.66
2023-03-17T19:13:42.323Z,12.57
2023-03-17T19:16:10.504Z,12.65
2023-03-17T19:18:41.920Z,12.60
2023-03-17T19:21:09.736Z,12.57
2023-03-17T19:23:38.244Z,12.55
2023-03-17T19:26:05.987Z,12.45
2023-03-17T19:28:34.035Z,12.48
2023-03-17T19:31:01.748Z,12.50
2023-03-17T19:33:29.008Z,12.46
2023-03-17T19:35:58.664Z,12.49
2023-03-17T19:38:27.099Z,12.37
2023-03-17T19:40:54.521Z,12.41
2023-03-17T19:43:38.985Z,12.37
2023-03-17T19:46:07.839Z,12.51
2023-03-17T19:48:36.407Z,12.47
2023-03-17T19:51:04.498Z,12.48
2023-03-17T19:53:31.777Z,12.45
2023-03-17T19:55:58.861Z,12.39
2023-03-17T19:58:25.943Z,12.34
2023-03-17T20:00:53.078Z,12.33
2023-03-17T20:03:20.527Z,12.32
2023-03-17T20:05:47.606Z,12.24
2023-03-17T20:08:15.318Z,12.25
2023-03-17T20:10:42.510Z,12.25
2023-03-17T20:13:11.383Z,12.20
2023-03-17T20:15:39.451Z,12.22
2023-03-17T20:18:07.277Z,12.17
2023-03-17T20:20:35.091Z,12.22
2023-03-17T20:23:02.181Z,12.25
2023-03-17T20:25:29.268Z,12.24
2023-03-17T20:27:56.350Z,12.11
2023-03-17T20:30:23.444Z,12.02
2023-03-17T20:32:51.165Z,12.04
2023-03-17T20:35:18.791Z,12.06
2023-03-17T20:37:45.838Z,12.13
2023-03-17T20:40:13.856Z,12.08
2023-03-17T20:42:41.558Z,12.08
2023-03-17T20:45:10.529Z,12.12
2023-03-17T20:47:37.995Z,12.08
2023-03-17T20:50:08.970Z,12.09
2023-03-17T20:52:37.223Z,12.05
2023-03-17T20:55:06.379Z,11.88
2023-03-17T20:57:36.261Z,11.86
2023-03-17T21:00:04.805Z,11.72
2023-03-17T21:02:31.870Z,11.81
2023-03-17T21:04:58.951Z,11.79
2023-03-17T21:07:26.517Z,11.81
2023-03-17T21:09:56.494Z,11.81
2023-03-17T21:12:23.816Z,11.85
2023-03-17T21:14:52.172Z,11.79
2023-03-17T21:17:19.410Z,11.81
2023-03-17T21:19:47.399Z,11.89
2023-03-17T21:22:14.560Z,11.95
2023-03-17T21:24:41.836Z,11.93
2023-03-17T21:27:11.355Z,11.98
2023-03-17T21:29:39.812Z,11.89
2023-03-17T21:32:08.656Z,11.92
2023-03-17T21:34:37.235Z,11.93
2023-03-17T21:37:04.620Z,11.82
2023-03-17T21:39:32.818Z,11.78
2023-03-17T21:42:01.341Z,11.65
2023-03-17T21:44:28.751Z,11.59
2023-03-17T21:46:56.992Z,11.67
2023-03-17T21:49:24.858Z,11.66
2023-03-17T21:51:51.928Z,11.60
2023-03-17T21:54:19.365Z,11.54
2023-03-17T21:56:46.951Z,11.59
2023-03-17T21:59:15.455Z,11.55
2023-03-17T22:01:44.086Z,11.48
2023-03-17T22:04:11.524Z,11.48
2023-03-17T22:06:38.860Z,11.47
2023-03-17T22:09:06.376Z,11.48
2023-03-17T22:11:33.464Z,11.46
2023-03-17T22:14:00.733Z,11.51
2023-03-17T22:16:28.024Z,11.56
2023-03-17T22:18:55.209Z,11.52
2023-03-17T22:21:23.573Z,11.53
2023-03-17T22:23:51.714Z,11.53
2023-03-17T22:26:20.957Z,11.41
2023-03-17T22:28:49.910Z,11.46
2023-03-17T22:31:19.841Z,11.42
2023-03-17T22:33:48.468Z,11.47
2023-03-17T22:36:16.571Z,11.49
2023-03-17T22:38:44.223Z,11.36
2023-03-17T22:41:14.219Z,11.17
2023-03-17T22:43:42.312Z,11.11
2023-03-17T22:46:10.008Z,11.13
2023-03-17T22:48:37.302Z,11.00
2023-03-17T22:51:07.694Z,10.91
2023-03-17T22:53:35.818Z,10.81
2023-03-17T22:56:04.175Z,10.68
2023-03-17T22:58:32.258Z,10.57
2023-03-17T23:00:59.951Z,10.41
2023-03-17T23:03:27.806Z,10.32
2023-03-17T23:05:58.428Z,10.19
2023-03-17T23:08:27.115Z,10.08
2023-03-17T23:10:55.084Z,9.95
2023-03-17T23:13:24.016Z,9.87
2023-03-17T23:15:51.538Z,9.76
2023-03-17T23:18:19.203Z,9.64
2023-03-17T23:20:46.527Z,9.55
2023-03-17T23:23:13.712Z,9.54
2023-03-17T23:25:41.338Z,9.57
2023-03-17T23:28:09.388Z,9.60
2023-03-17T23:30:37.333Z,9.58
2023-03-17T23:33:05.348Z,9.55
2023-03-17T23:35:33.353Z,9.52
2023-03-17T23:38:00.463Z,9.52
2023-03-17T23:40:27.801Z,9.46
2023-03-17T23:42:55.133Z,9.41
2023-03-17T23:45:23.233Z,9.38
2023-03-17T23:47:52.143Z,9.27
2023-03-17T23:50:20.935Z,9.20
2023-03-17T23:52:48.271Z,9.13
2023-03-17T23:55:16.776Z,9.04
2023-03-17T23:57:44.305Z,9.00
